sensor_id;sensor_type;location;lat;lon;timestamp;temperature;humidity
1225;DHT22;602;48.000;7.840;2024-01-27T00:08:58;9.20;99.90
1225;DHT22;602;48.000;7.840;2024-01-27T00:11:25;9.20;99.90
1225;DHT22;602;48.000;7.840;2024-01-27T00:13:52;9.20;99.90
1225;DHT22;602;48.000;7.840;2024-01-27T00:23:21;9.00;99.90
1225;DHT22;602;48.000;7.840;2024-01-27T00:29:25;8.90;99.90
1225;DHT22;602;48.000;7.840;2024-01-27T00:32:23;8.90;99.90
1225;DHT22;602;48.000;7.840;2024-01-27T00:35:11;8.80;99.90
1225;DHT22;602;48.000;7.840;2024-01-27T00:37:43;8.90;99.90
1225;DHT22;602;48.000;7.840;2024-01-27T00:40:22;8.80;99.90
1225;DHT22;602;48.000;7.840;2024-01-27T00:43:02;8.80;99.90
1225;DHT22;602;48.000;7.840;2024-01-27T00:45:54;8.70;99.90
1225;DHT22;602;48.000;7.840;2024-01-27T00:48:34;8.60;99.90
1225;DHT22;602;48.000;7.840;2024-01-27T00:51:29;8.50;99.90
1225;DHT22;602;48.000;7.840;2024-01-27T00:54:06;8.40;99.90
1225;DHT22;602;48.000;7.840;2024-01-27T00:56:51;8.40;99.90
1225;DHT22;602;48.000;7.840;2024-01-27T00:59:25;8.40;99.90
1225;DHT22;602;48.000;7.840;2024-01-27T01:02:10;8.20;99.90
1225;DHT22;602;48.000;7.840;2024-01-27T01:05:11;8.10;99.90
1225;DHT22;602;48.000;7.840;2024-01-27T01:07:42;8.10;99.90
1225;DHT22;602;48.000;7.840;2024-01-27T01:10:20;8.10;99.90
1225;DHT22;602;48.000;7.840;2024-01-27T01:12:51;8.20;99.90
1225;DHT22;602;48.000;7.840;2024-01-27T01:15:31;8.20;99.90
1225;DHT22;602;48.000;7.840;2024-01-27T01:18:12;8.20;99.90
1225;DHT22;602;48.000;7.840;2024-01-27T01:20:44;8.20;99.90
1225;DHT22;602;48.000;7.840;2024-01-27T01:23:14;8.20;99.90
1225;DHT22;602;48.000;7.840;2024-01-27T01:25:45;8.20;99.90
1225;DHT22;602;48.000;7.840;2024-01-27T01:28:15;8.10;99.90
1225;DHT22;602;48.000;7.840;2024-01-27T01:30:45;8.10;99.90
1225;DHT22;602;48.000;7.840;2024-01-27T01:33:20;8.10;99.90
1225;DHT22;602;48.000;7.840;2024-01-27T01:35:54;8.10;99.90
1225;DHT22;602;48.000;7.840;2024-01-27T01:38:25;8.00;99.90
1225;DHT22;602;48.000;7.840;2024-01-27T01:41:02;8.00;99.90
1225;DHT22;602;48.000;7.840;2024-01-27T01:43:37;8.00;99.90
1225;DHT22;602;48.000;7.840;2024-01-27T01:46:09;7.90;99.90
1225;DHT22;602;48.000;7.840;2024-01-27T01:48:45;8.00;99.90
1225;DHT22;602;48.000;7.840;2024-01-27T01:51:19;7.90;99.90
1225;DHT22;602;48.000;7.840;2024-01-27T01:53:49;7.90;99.90
1225;DHT22;602;48.000;7.840;2024-01-27T01:56:20;7.90;99.90
1225;DHT22;602;48.000;7.840;2024-01-27T01:58:49;7.90;99.90
1225;DHT22;602;48.000;7.840;2024-01-27T02:01:21;7.90;99.90
1225;DHT22;602;48.000;7.840;2024-01-27T02:03:56;7.80;99.90
1225;DHT22;602;48.000;7.840;2024-01-27T02:06:29;7.70;99.90
1225;DHT22;602;48.000;7.840;2024-01-27T02:08:58;7.70;99.90
1225;DHT22;602;48.000;7.840;2024-01-27T02:14:52;7.50;99.90
1225;DHT22;602;48.000;7.840;2024-01-27T02:17:18;7.50;99.90
1225;DHT22;602;48.000;7.840;2024-01-27T02:19:47;7.50;99.90
1225;DHT22;602;48.000;7.840;2024-01-27T02:22:14;7.30;99.90
1225;DHT22;602;48.000;7.840;2024-01-27T02:24:42;7.30;99.90
1225;DHT22;602;48.000;7.840;2024-01-27T02:27:08;7.40;99.90
1225;DHT22;602;48.000;7.840;2024-01-27T02:29:35;7.40;99.90
1225;DHT22;602;48.000;7.840;2024-01-27T02:32:03;7.30;99.90
1225;DHT22;602;48.000;7.840;2024-01-27T02:34:29;7.30;99.90
1225;DHT22;602;48.000;7.840;2024-01-27T02:36:56;7.20;99.90
1225;DHT22;602;48.000;7.840;2024-01-27T02:39:23;7.20;99.90
1225;DHT22;602;48.000;7.840;2024-01-27T02:41:51;7.00;99.90
1225;DHT22;602;48.000;7.840;2024-01-27T02:44:18;7.00;99.90
1225;DHT22;602;48.000;7.840;2024-01-27T02:46:45;7.10;99.90
1225;DHT22;602;48.000;7.840;2024-01-27T02:49:12;7.10;99.90
1225;DHT22;602;48.000;7.840;2024-01-27T02:51:39;7.10;99.90
1225;DHT22;602;48.000;7.840;2024-01-27T02:54:06;7.10;99.90
1225;DHT22;602;48.000;7.840;2024-01-27T02:56:33;7.10;99.90
1225;DHT22;602;48.000;7.840;2024-01-27T02:59:01;7.10;99.90
1225;DHT22;602;48.000;7.840;2024-01-27T03:01:28;7.00;99.90
1225;DHT22;602;48.000;7.840;2024-01-27T03:03:54;6.90;99.90
1225;DHT22;602;48.000;7.840;2024-01-27T03:06:21;6.90;99.90
1225;DHT22;602;48.000;7.840;2024-01-27T03:08:48;6.90;99.90
1225;DHT22;602;48.000;7.840;2024-01-27T03:11:15;6.80;99.90
1225;DHT22;602;48.000;7.840;2024-01-27T03:13:42;6.70;99.90
1225;DHT22;602;48.000;7.840;2024-01-27T03:16:12;6.60;99.90
1225;DHT22;602;48.000;7.840;2024-01-27T03:18:39;6.70;99.90
1225;DHT22;602;48.000;7.840;2024-01-27T03:21:06;6.70;99.90
1225;DHT22;602;48.000;7.840;2024-01-27T03:23:33;6.60;99.90
1225;DHT22;602;48.000;7.840;2024-01-27T03:26:02;6.70;99.90
1225;DHT22;602;48.000;7.840;2024-01-27T03:28:30;6.70;99.90
1225;DHT22;602;48.000;7.840;2024-01-27T03:30:56;6.40;99.90
1225;DHT22;602;48.000;7.840;2024-01-27T03:33:26;6.40;99.90
1225;DHT22;602;48.000;7.840;2024-01-27T03:35:56;6.50;99.90
1225;DHT22;602;48.000;7.840;2024-01-27T03:38:23;6.50;99.90
1225;DHT22;602;48.000;7.840;2024-01-27T03:40:50;6.60;99.90
1225;DHT22;602;48.000;7.840;2024-01-27T03:43:17;6.50;99.90
1225;DHT22;602;48.000;7.840;2024-01-27T03:45:44;6.50;99.90
1225;DHT22;602;48.000;7.840;2024-01-27T03:48:11;6.60;99.90
1225;DHT22;602;48.000;7.840;2024-01-27T03:50:39;6.50;99.90
1225;DHT22;602;48.000;7.840;2024-01-27T03:53:06;6.50;99.90
1225;DHT22;602;48.000;7.840;2024-01-27T03:55:33;6.40;99.90
1225;DHT22;602;48.000;7.840;2024-01-27T03:58:00;6.30;99.90
1225;DHT22;602;48.000;7.840;2024-01-27T04:00:27;6.30;99.90
1225;DHT22;602;48.000;7.840;2024-01-27T04:02:55;6.30;99.90
1225;DHT22;602;48.000;7.840;2024-01-27T04:05:22;6.30;99.90
1225;DHT22;602;48.000;7.840;2024-01-27T04:07:50;6.20;99.90
1225;DHT22;602;48.000;7.840;2024-01-27T04:10:17;6.10;99.90
1225;DHT22;602;48.000;7.840;2024-01-27T04:12:44;6.20;99.90
1225;DHT22;602;48.000;7.840;2024-01-27T04:15:11;6.20;99.90
1225;DHT22;602;48.000;7.840;2024-01-27T04:17:39;6.30;99.90
1225;DHT22;602;48.000;7.840;2024-01-27T04:20:06;6.20;99.90
1225;DHT22;602;48.000;7.840;2024-01-27T04:22:34;6.30;99.90
1225;DHT22;602;48.000;7.840;2024-01-27T04:25:02;6.20;99.90
1225;DHT22;602;48.000;7.840;2024-01-27T04:27:30;6.30;99.90
1225;DHT22;602;48.000;7.840;2024-01-27T04:29:57;6.30;99.90
1225;DHT22;602;48.000;7.840;2024-01-27T04:32:23;6.30;99.90
1225;DHT22;602;48.000;7.840;2024-01-27T04:34:52;6.20;99.90
1225;DHT22;602;48.000;7.840;2024-01-27T04:37:18;6.30;99.90
1225;DHT22;602;48.000;7.840;2024-01-27T04:39:45;6.20;99.90
1225;DHT22;602;48.000;7.840;2024-01-27T04:42:13;6.20;99.90
1225;DHT22;602;48.000;7.840;2024-01-27T04:44:42;6.20;99.90
1225;DHT22;602;48.000;7.840;2024-01-27T04:47:08;6.20;99.90
1225;DHT22;602;48.000;7.840;2024-01-27T04:49:35;6.30;99.90
1225;DHT22;602;48.000;7.840;2024-01-27T04:52:02;6.20;99.90
1225;DHT22;602;48.000;7.840;2024-01-27T04:54:29;6.30;99.90
1225;DHT22;602;48.000;7.840;2024-01-27T04:56:56;6.20;99.90
1225;DHT22;602;48.000;7.840;2024-01-27T04:59:24;6.10;99.90
1225;DHT22;602;48.000;7.840;2024-01-27T05:01:51;6.10;99.90
1225;DHT22;602;48.000;7.840;2024-01-27T05:04:18;6.10;99.90
1225;DHT22;602;48.000;7.840;2024-01-27T05:06:45;6.10;99.90
1225;DHT22;602;48.000;7.840;2024-01-27T05:09:12;6.10;99.90
1225;DHT22;602;48.000;7.840;2024-01-27T05:11:39;6.00;99.90
1225;DHT22;602;48.000;7.840;2024-01-27T05:14:08;5.80;99.90
1225;DHT22;602;48.000;7.840;2024-01-27T05:16:36;5.80;99.90
1225;DHT22;602;48.000;7.840;2024-01-27T05:19:03;5.90;99.90
1225;DHT22;602;48.000;7.840;2024-01-27T05:21:30;5.80;99.90
1225;DHT22;602;48.000;7.840;2024-01-27T05:23:57;5.80;99.90
1225;DHT22;602;48.000;7.840;2024-01-27T05:26:23;5.80;99.90
1225;DHT22;602;48.000;7.840;2024-01-27T05:28:50;5.80;99.90
1225;DHT22;602;48.000;7.840;2024-01-27T05:31:17;5.80;99.90
1225;DHT22;602;48.000;7.840;2024-01-27T05:33:45;5.70;99.90
1225;DHT22;602;48.000;7.840;2024-01-27T05:36:12;5.70;99.90
1225;DHT22;602;48.000;7.840;2024-01-27T05:38:39;5.80;99.90
1225;DHT22;602;48.000;7.840;2024-01-27T05:41:06;5.60;99.90
1225;DHT22;602;48.000;7.840;2024-01-27T05:43:33;5.70;99.90
1225;DHT22;602;48.000;7.840;2024-01-27T05:46:00;5.70;99.90
1225;DHT22;602;48.000;7.840;2024-01-27T05:48:26;5.70;99.90
1225;DHT22;602;48.000;7.840;2024-01-27T05:50:59;5.60;99.90
1225;DHT22;602;48.000;7.840;2024-01-27T05:53:26;5.60;99.90
1225;DHT22;602;48.000;7.840;2024-01-27T05:55:53;5.40;99.90
1225;DHT22;602;48.000;7.840;2024-01-27T05:58:20;5.40;99.90
1225;DHT22;602;48.000;7.840;2024-01-27T06:00:47;5.50;99.90
1225;DHT22;602;48.000;7.840;2024-01-27T06:03:15;5.40;99.90
1225;DHT22;602;48.000;7.840;2024-01-27T06:05:42;5.40;99.90
1225;DHT22;602;48.000;7.840;2024-01-27T06:08:11;5.30;99.90
1225;DHT22;602;48.000;7.840;2024-01-27T06:10:38;5.30;99.90
1225;DHT22;602;48.000;7.840;2024-01-27T06:13:05;5.30;99.90
1225;DHT22;602;48.000;7.840;2024-01-27T06:15:32;5.30;99.90
1225;DHT22;602;48.000;7.840;2024-01-27T06:17:58;5.30;99.90
1225;DHT22;602;48.000;7.840;2024-01-27T06:20:25;5.30;99.90
1225;DHT22;602;48.000;7.840;2024-01-27T06:22:52;5.10;99.90
1225;DHT22;602;48.000;7.840;2024-01-27T06:25:21;5.10;99.90
1225;DHT22;602;48.000;7.840;2024-01-27T06:27:48;5.20;99.90
1225;DHT22;602;48.000;7.840;2024-01-27T06:30:15;5.10;99.90
1225;DHT22;602;48.000;7.840;2024-01-27T06:32:42;5.20;99.90
1225;DHT22;602;48.000;7.840;2024-01-27T06:35:09;5.20;99.90
1225;DHT22;602;48.000;7.840;2024-01-27T06:37:36;5.30;99.90
1225;DHT22;602;48.000;7.840;2024-01-27T06:40:03;5.20;99.90
1225;DHT22;602;48.000;7.840;2024-01-27T06:42:31;5.20;99.90
1225;DHT22;602;48.000;7.840;2024-01-27T06:44:58;5.20;99.90
1225;DHT22;602;48.000;7.840;2024-01-27T06:47:25;5.20;99.90
1225;DHT22;602;48.000;7.840;2024-01-27T06:49:52;5.20;99.90
1225;DHT22;602;48.000;7.840;2024-01-27T06:52:19;4.90;99.90
1225;DHT22;602;48.000;7.840;2024-01-27T06:54:46;4.70;99.90
1225;DHT22;602;48.000;7.840;2024-01-27T06:57:19;4.80;99.90
1225;DHT22;602;48.000;7.840;2024-01-27T06:59:49;4.60;99.90
1225;DHT22;602;48.000;7.840;2024-01-27T07:02:19;4.70;99.90
1225;DHT22;602;48.000;7.840;2024-01-27T07:04:45;4.80;99.90
1225;DHT22;602;48.000;7.840;2024-01-27T07:07:12;4.90;99.90
1225;DHT22;602;48.000;7.840;2024-01-27T07:09:39;4.80;99.90
1225;DHT22;602;48.000;7.840;2024-01-27T07:12:07;4.90;99.90
1225;DHT22;602;48.000;7.840;2024-01-27T07:14:34;4.90;99.90
1225;DHT22;602;48.000;7.840;2024-01-27T07:17:03;4.90;99.90
1225;DHT22;602;48.000;7.840;2024-01-27T07:19:30;4.90;99.90
1225;DHT22;602;48.000;7.840;2024-01-27T07:21:57;5.00;99.90
1225;DHT22;602;48.000;7.840;2024-01-27T07:24:25;4.90;99.90
1225;DHT22;602;48.000;7.840;2024-01-27T07:26:52;4.90;99.90
1225;DHT22;602;48.000;7.840;2024-01-27T07:29:19;4.90;99.90
1225;DHT22;602;48.000;7.840;2024-01-27T07:31:47;5.00;99.90
1225;DHT22;602;48.000;7.840;2024-01-27T07:34:15;5.00;99.90
1225;DHT22;602;48.000;7.840;2024-01-27T07:36:42;4.90;99.90
1225;DHT22;602;48.000;7.840;2024-01-27T07:39:09;4.90;99.90
1225;DHT22;602;48.000;7.840;2024-01-27T07:41:36;4.70;99.90
1225;DHT22;602;48.000;7.840;2024-01-27T07:44:09;4.80;99.90
1225;DHT22;602;48.000;7.840;2024-01-27T07:46:37;4.60;99.90
1225;DHT22;602;48.000;7.840;2024-01-27T07:49:03;4.50;99.90
1225;DHT22;602;48.000;7.840;2024-01-27T07:51:32;4.40;99.90
1225;DHT22;602;48.000;7.840;2024-01-27T07:53:59;4.30;99.90
1225;DHT22;602;48.000;7.840;2024-01-27T07:56:26;4.20;99.90
1225;DHT22;602;48.000;7.840;2024-01-27T07:58:53;4.10;99.90
1225;DHT22;602;48.000;7.840;2024-01-27T08:01:20;4.20;99.90
1225;DHT22;602;48.000;7.840;2024-01-27T08:03:47;4.10;99.90
1225;DHT22;602;48.000;7.840;2024-01-27T08:06:15;4.00;99.90
1225;DHT22;602;48.000;7.840;2024-01-27T08:08:45;4.20;99.90
1225;DHT22;602;48.000;7.840;2024-01-27T08:11:12;4.30;99.90
1225;DHT22;602;48.000;7.840;2024-01-27T08:13:39;4.40;99.90
1225;DHT22;602;48.000;7.840;2024-01-27T08:16:06;4.50;99.90
1225;DHT22;602;48.000;7.840;2024-01-27T08:18:35;4.60;99.90
1225;DHT22;602;48.000;7.840;2024-01-27T08:21:02;4.60;99.90
1225;DHT22;602;48.000;7.840;2024-01-27T08:23:29;4.70;99.90
1225;DHT22;602;48.000;7.840;2024-01-27T08:25:58;4.70;99.90
1225;DHT22;602;48.000;7.840;2024-01-27T08:28:25;4.80;99.90
1225;DHT22;602;48.000;7.840;2024-01-27T08:30:51;4.80;99.90
1225;DHT22;602;48.000;7.840;2024-01-27T08:33:18;5.00;99.90
1225;DHT22;602;48.000;7.840;2024-01-27T08:35:46;4.90;99.90
1225;DHT22;602;48.000;7.840;2024-01-27T08:38:13;5.10;99.90
1225;DHT22;602;48.000;7.840;2024-01-27T08:40:40;5.20;99.90
1225;DHT22;602;48.000;7.840;2024-01-27T08:43:08;5.40;99.90
1225;DHT22;602;48.000;7.840;2024-01-27T08:45:37;5.70;99.90
1225;DHT22;602;48.000;7.840;2024-01-27T08:48:05;6.00;99.90
1225;DHT22;602;48.000;7.840;2024-01-27T08:50:32;6.10;99.90
1225;DHT22;602;48.000;7.840;2024-01-27T08:52:59;6.40;99.90
1225;DHT22;602;48.000;7.840;2024-01-27T08:55:26;6.70;99.90
1225;DHT22;602;48.000;7.840;2024-01-27T08:57:53;6.90;99.90
1225;DHT22;602;48.000;7.840;2024-01-27T09:00:21;7.10;99.90
1225;DHT22;602;48.000;7.840;2024-01-27T09:02:49;7.30;99.90
1225;DHT22;602;48.000;7.840;2024-01-27T09:05:15;7.50;99.90
1225;DHT22;602;48.000;7.840;2024-01-27T09:07:42;7.90;99.90
1225;DHT22;602;48.000;7.840;2024-01-27T09:10:09;8.10;99.90
1225;DHT22;602;48.000;7.840;2024-01-27T09:12:38;8.30;99.90
1225;DHT22;602;48.000;7.840;2024-01-27T09:15:06;8.40;99.90
1225;DHT22;602;48.000;7.840;2024-01-27T09:17:35;8.50;99.90
1225;DHT22;602;48.000;7.840;2024-01-27T09:20:02;8.90;99.90
1225;DHT22;602;48.000;7.840;2024-01-27T09:22:29;9.20;99.90
1225;DHT22;602;48.000;7.840;2024-01-27T09:24:56;9.40;99.90
1225;DHT22;602;48.000;7.840;2024-01-27T09:27:23;9.40;99.90
1225;DHT22;602;48.000;7.840;2024-01-27T09:29:50;9.50;99.90
1225;DHT22;602;48.000;7.840;2024-01-27T09:32:17;9.70;99.90
1225;DHT22;602;48.000;7.840;2024-01-27T09:34:45;9.90;99.90
1225;DHT22;602;48.000;7.840;2024-01-27T09:37:12;10.00;99.90
1225;DHT22;602;48.000;7.840;2024-01-27T09:39:39;10.00;99.90
1225;DHT22;602;48.000;7.840;2024-01-27T09:42:07;10.20;99.90
1225;DHT22;602;48.000;7.840;2024-01-27T09:44:35;10.40;99.90
1225;DHT22;602;48.000;7.840;2024-01-27T09:47:03;10.80;99.90
1225;DHT22;602;48.000;7.840;2024-01-27T09:49:31;11.00;99.90
1225;DHT22;602;48.000;7.840;2024-01-27T09:51:59;11.10;99.90
1225;DHT22;602;48.000;7.840;2024-01-27T09:54:26;11.40;99.90
1225;DHT22;602;48.000;7.840;2024-01-27T09:56:54;11.80;99.90
1225;DHT22;602;48.000;7.840;2024-01-27T09:59:23;11.90;99.90
1225;DHT22;602;48.000;7.840;2024-01-27T10:01:52;12.00;99.90
1225;DHT22;602;48.000;7.840;2024-01-27T10:04:19;11.70;99.90
1225;DHT22;602;48.000;7.840;2024-01-27T10:06:47;11.80;99.90
1225;DHT22;602;48.000;7.840;2024-01-27T10:09:16;11.70;99.90
1225;DHT22;602;48.000;7.840;2024-01-27T10:11:46;12.00;99.90
1225;DHT22;602;48.000;7.840;2024-01-27T10:14:13;12.10;99.90
1225;DHT22;602;48.000;7.840;2024-01-27T10:16:41;12.20;99.90
1225;DHT22;602;48.000;7.840;2024-01-27T10:19:12;12.50;99.90
1225;DHT22;602;48.000;7.840;2024-01-27T10:21:40;12.50;99.90
1225;DHT22;602;48.000;7.840;2024-01-27T10:24:07;12.50;99.90
1225;DHT22;602;48.000;7.840;2024-01-27T10:26:36;12.30;99.90
1225;DHT22;602;48.000;7.840;2024-01-27T10:29:02;12.70;99.90
1225;DHT22;602;48.000;7.840;2024-01-27T10:31:30;13.00;99.90
1225;DHT22;602;48.000;7.840;2024-01-27T10:33:58;13.10;99.90
1225;DHT22;602;48.000;7.840;2024-01-27T10:36:37;13.00;99.90
1225;DHT22;602;48.000;7.840;2024-01-27T10:39:16;13.20;99.90
1225;DHT22;602;48.000;7.840;2024-01-27T10:41:46;13.40;99.90
1225;DHT22;602;48.000;7.840;2024-01-27T10:44:15;13.60;99.90
1225;DHT22;602;48.000;7.840;2024-01-27T10:46:44;13.60;99.90
1225;DHT22;602;48.000;7.840;2024-01-27T10:49:12;13.60;99.90
1225;DHT22;602;48.000;7.840;2024-01-27T10:51:43;13.90;99.90
1225;DHT22;602;48.000;7.840;2024-01-27T10:54:14;14.00;99.90
1225;DHT22;602;48.000;7.840;2024-01-27T10:56:42;13.90;99.90
1225;DHT22;602;48.000;7.840;2024-01-27T10:59:12;13.70;99.90
1225;DHT22;602;48.000;7.840;2024-01-27T11:01:42;13.50;99.90
1225;DHT22;602;48.000;7.840;2024-01-27T11:04:11;13.60;99.90
1225;DHT22;602;48.000;7.840;2024-01-27T11:06:40;13.80;99.90
1225;DHT22;602;48.000;7.840;2024-01-27T11:09:10;14.30;99.90
1225;DHT22;602;48.000;7.840;2024-01-27T11:11:38;14.10;99.90
1225;DHT22;602;48.000;7.840;2024-01-27T11:14:06;14.00;99.90
1225;DHT22;602;48.000;7.840;2024-01-27T11:16:36;14.20;99.90
1225;DHT22;602;48.000;7.840;2024-01-27T11:19:09;14.20;99.90
1225;DHT22;602;48.000;7.840;2024-01-27T11:21:36;14.60;99.90
1225;DHT22;602;48.000;7.840;2024-01-27T11:24:13;14.60;99.90
1225;DHT22;602;48.000;7.840;2024-01-27T11:26:39;14.50;99.90
1225;DHT22;602;48.000;7.840;2024-01-27T11:29:06;14.70;99.90
1225;DHT22;602;48.000;7.840;2024-01-27T11:31:43;14.40;99.90
1225;DHT22;602;48.000;7.840;2024-01-27T11:34:11;14.50;99.90
1225;DHT22;602;48.000;7.840;2024-01-27T11:36:42;14.40;99.90
1225;DHT22;602;48.000;7.840;2024-01-27T11:39:26;14.50;99.90
1225;DHT22;602;48.000;7.840;2024-01-27T11:41:53;14.30;99.90
1225;DHT22;602;48.000;7.840;2024-01-27T11:44:20;14.40;99.90
1225;DHT22;602;48.000;7.840;2024-01-27T11:46:48;14.60;99.90
1225;DHT22;602;48.000;7.840;2024-01-27T11:49:16;14.80;99.90
1225;DHT22;602;48.000;7.840;2024-01-27T11:51:43;14.80;99.90
1225;DHT22;602;48.000;7.840;2024-01-27T11:54:10;14.80;99.90
1225;DHT22;602;48.000;7.840;2024-01-27T11:56:38;14.90;99.90
1225;DHT22;602;48.000;7.840;2024-01-27T11:59:05;15.10;99.90
1225;DHT22;602;48.000;7.840;2024-01-27T12:01:32;15.10;99.90
1225;DHT22;602;48.000;7.840;2024-01-27T12:04:00;15.20;99.90
1225;DHT22;602;48.000;7.840;2024-01-27T12:06:28;15.20;99.90
1225;DHT22;602;48.000;7.840;2024-01-27T12:08:56;15.20;99.90
1225;DHT22;602;48.000;7.840;2024-01-27T12:11:24;15.40;99.90
1225;DHT22;602;48.000;7.840;2024-01-27T12:13:51;15.20;99.90
1225;DHT22;602;48.000;7.840;2024-01-27T12:16:20;15.10;99.90
1225;DHT22;602;48.000;7.840;2024-01-27T12:18:47;15.10;99.90
1225;DHT22;602;48.000;7.840;2024-01-27T12:21:18;15.30;99.90
1225;DHT22;602;48.000;7.840;2024-01-27T12:23:50;15.40;99.90
1225;DHT22;602;48.000;7.840;2024-01-27T12:26:17;15.40;99.90
1225;DHT22;602;48.000;7.840;2024-01-27T12:28:46;15.60;99.90
1225;DHT22;602;48.000;7.840;2024-01-27T12:31:15;15.60;99.90
1225;DHT22;602;48.000;7.840;2024-01-27T12:33:48;15.70;99.90
1225;DHT22;602;48.000;7.840;2024-01-27T12:36:18;15.70;99.90
1225;DHT22;602;48.000;7.840;2024-01-27T12:38:56;15.80;99.90
1225;DHT22;602;48.000;7.840;2024-01-27T12:41:24;15.60;99.90
1225;DHT22;602;48.000;7.840;2024-01-27T12:43:51;15.60;99.90
1225;DHT22;602;48.000;7.840;2024-01-27T12:46:18;15.80;99.90
1225;DHT22;602;48.000;7.840;2024-01-27T12:48:45;15.70;99.90
1225;DHT22;602;48.000;7.840;2024-01-27T12:51:12;15.80;99.90
1225;DHT22;602;48.000;7.840;2024-01-27T12:53:42;15.80;99.90
1225;DHT22;602;48.000;7.840;2024-01-27T12:56:10;15.90;99.90
1225;DHT22;602;48.000;7.840;2024-01-27T12:58:37;15.90;99.90
1225;DHT22;602;48.000;7.840;2024-01-27T13:01:04;15.90;99.90
1225;DHT22;602;48.000;7.840;2024-01-27T13:03:31;16.00;99.90
1225;DHT22;602;48.000;7.840;2024-01-27T13:05:58;15.90;99.90
1225;DHT22;602;48.000;7.840;2024-01-27T13:08:25;16.00;99.90
1225;DHT22;602;48.000;7.840;2024-01-27T13:10:53;16.10;99.90
1225;DHT22;602;48.000;7.840;2024-01-27T13:13:20;16.10;99.90
1225;DHT22;602;48.000;7.840;2024-01-27T13:15:47;16.20;99.90
1225;DHT22;602;48.000;7.840;2024-01-27T13:18:14;16.10;99.90
1225;DHT22;602;48.000;7.840;2024-01-27T13:20:41;16.00;99.90
1225;DHT22;602;48.000;7.840;2024-01-27T13:23:08;15.90;99.90
1225;DHT22;602;48.000;7.840;2024-01-27T13:25:35;15.80;99.90
1225;DHT22;602;48.000;7.840;2024-01-27T13:28:04;16.00;99.90
1225;DHT22;602;48.000;7.840;2024-01-27T13:30:33;16.00;99.90
1225;DHT22;602;48.000;7.840;2024-01-27T13:33:00;15.90;99.90
1225;DHT22;602;48.000;7.840;2024-01-27T13:35:27;16.00;99.90
1225;DHT22;602;48.000;7.840;2024-01-27T13:37:54;15.90;99.90
1225;DHT22;602;48.000;7.840;2024-01-27T13:40:20;15.70;99.90
1225;DHT22;602;48.000;7.840;2024-01-27T13:42:47;15.60;99.90
1225;DHT22;602;48.000;7.840;2024-01-27T13:45:16;15.50;99.90
1225;DHT22;602;48.000;7.840;2024-01-27T13:47:42;15.30;99.90
1225;DHT22;602;48.000;7.840;2024-01-27T13:50:11;15.20;99.90
1225;DHT22;602;48.000;7.840;2024-01-27T13:52:37;15.10;99.90
1225;DHT22;602;48.000;7.840;2024-01-27T13:55:05;14.90;99.90
1225;DHT22;602;48.000;7.840;2024-01-27T13:57:32;15.00;99.90
1225;DHT22;602;48.000;7.840;2024-01-27T13:59:59;14.80;99.90
1225;DHT22;602;48.000;7.840;2024-01-27T14:02:27;14.60;99.90
1225;DHT22;602;48.000;7.840;2024-01-27T14:04:54;14.50;99.90
1225;DHT22;602;48.000;7.840;2024-01-27T14:07:21;14.60;99.90
1225;DHT22;602;48.000;7.840;2024-01-27T14:09:48;14.60;99.90
1225;DHT22;602;48.000;7.840;2024-01-27T14:12:15;14.50;99.90
1225;DHT22;602;48.000;7.840;2024-01-27T14:14:42;14.40;99.90
1225;DHT22;602;48.000;7.840;2024-01-27T14:17:09;14.30;99.90
1225;DHT22;602;48.000;7.840;2024-01-27T14:19:37;14.30;99.90
1225;DHT22;602;48.000;7.840;2024-01-27T14:22:05;14.30;99.90
1225;DHT22;602;48.000;7.840;2024-01-27T14:24:32;14.20;99.90
1225;DHT22;602;48.000;7.840;2024-01-27T14:26:59;14.00;99.90
1225;DHT22;602;48.000;7.840;2024-01-27T14:29:26;14.00;99.90
1225;DHT22;602;48.000;7.840;2024-01-27T14:31:53;14.10;99.90
1225;DHT22;602;48.000;7.840;2024-01-27T14:34:21;14.00;99.90
1225;DHT22;602;48.000;7.840;2024-01-27T14:36:49;13.90;99.90
1225;DHT22;602;48.000;7.840;2024-01-27T14:39:16;13.90;99.90
1225;DHT22;602;48.000;7.840;2024-01-27T14:41:43;14.00;99.90
1225;DHT22;602;48.000;7.840;2024-01-27T14:44:10;14.00;99.90
1225;DHT22;602;48.000;7.840;2024-01-27T14:46:37;13.90;99.90
1225;DHT22;602;48.000;7.840;2024-01-27T14:49:06;13.80;99.90
1225;DHT22;602;48.000;7.840;2024-01-27T14:51:33;14.00;99.90
1225;DHT22;602;48.000;7.840;2024-01-27T14:54:02;14.20;99.90
1225;DHT22;602;48.000;7.840;2024-01-27T14:56:30;14.20;99.90
1225;DHT22;602;48.000;7.840;2024-01-27T14:58:57;14.10;99.90
1225;DHT22;602;48.000;7.840;2024-01-27T15:01:24;14.10;99.90
1225;DHT22;602;48.000;7.840;2024-01-27T15:03:50;13.90;99.90
1225;DHT22;602;48.000;7.840;2024-01-27T15:06:18;13.80;99.90
1225;DHT22;602;48.000;7.840;2024-01-27T15:08:45;13.70;99.90
1225;DHT22;602;48.000;7.840;2024-01-27T15:11:13;13.50;99.90
1225;DHT22;602;48.000;7.840;2024-01-27T15:13:40;13.40;99.90
1225;DHT22;602;48.000;7.840;2024-01-27T15:16:07;13.10;99.90
1225;DHT22;602;48.000;7.840;2024-01-27T15:18:34;12.90;99.90
1225;DHT22;602;48.000;7.840;2024-01-27T15:21:03;12.90;99.90
1225;DHT22;602;48.000;7.840;2024-01-27T15:23:30;12.90;99.90
1225;DHT22;602;48.000;7.840;2024-01-27T15:25:57;12.90;99.90
1225;DHT22;602;48.000;7.840;2024-01-27T15:28:26;12.80;99.90
1225;DHT22;602;48.000;7.840;2024-01-27T15:30:53;12.80;99.90
1225;DHT22;602;48.000;7.840;2024-01-27T15:33:20;12.30;99.90
1225;DHT22;602;48.000;7.840;2024-01-27T15:35:47;12.30;99.90
1225;DHT22;602;48.000;7.840;2024-01-27T15:38:14;12.10;99.90
1225;DHT22;602;48.000;7.840;2024-01-27T15:40:40;12.10;99.90
1225;DHT22;602;48.000;7.840;2024-01-27T15:43:07;12.00;99.90
1225;DHT22;602;48.000;7.840;2024-01-27T15:45:36;12.10;99.90
1225;DHT22;602;48.000;7.840;2024-01-27T15:48:03;12.00;99.90
1225;DHT22;602;48.000;7.840;2024-01-27T15:50:30;11.80;99.90
1225;DHT22;602;48.000;7.840;2024-01-27T15:52:59;11.70;99.90
1225;DHT22;602;48.000;7.840;2024-01-27T15:55:26;11.80;99.90
1225;DHT22;602;48.000;7.840;2024-01-27T15:57:53;11.60;99.90
1225;DHT22;602;48.000;7.840;2024-01-27T16:00:20;11.70;99.90
1225;DHT22;602;48.000;7.840;2024-01-27T16:02:48;11.60;99.90
1225;DHT22;602;48.000;7.840;2024-01-27T16:05:16;11.60;99.90
1225;DHT22;602;48.000;7.840;2024-01-27T16:07:43;11.60;99.90
1225;DHT22;602;48.000;7.840;2024-01-27T16:10:10;11.60;99.90
1225;DHT22;602;48.000;7.840;2024-01-27T16:12:37;11.40;99.90
1225;DHT22;602;48.000;7.840;2024-01-27T16:15:05;11.30;99.90
1225;DHT22;602;48.000;7.840;2024-01-27T16:17:32;11.40;99.90
1225;DHT22;602;48.000;7.840;2024-01-27T16:20:00;11.40;99.90
1225;DHT22;602;48.000;7.840;2024-01-27T16:22:28;11.40;99.90
1225;DHT22;602;48.000;7.840;2024-01-27T16:24:55;11.40;99.90
1225;DHT22;602;48.000;7.840;2024-01-27T16:27:22;11.40;99.90
1225;DHT22;602;48.000;7.840;2024-01-27T16:29:52;11.40;99.90
1225;DHT22;602;48.000;7.840;2024-01-27T16:32:19;11.20;99.90
1225;DHT22;602;48.000;7.840;2024-01-27T16:34:46;11.20;99.90
1225;DHT22;602;48.000;7.840;2024-01-27T16:37:14;11.10;99.90
1225;DHT22;602;48.000;7.840;2024-01-27T16:39:41;11.10;99.90
1225;DHT22;602;48.000;7.840;2024-01-27T16:42:08;11.10;99.90
1225;DHT22;602;48.000;7.840;2024-01-27T16:44:35;10.90;99.90
1225;DHT22;602;48.000;7.840;2024-01-27T16:47:02;10.90;99.90
1225;DHT22;602;48.000;7.840;2024-01-27T16:49:29;10.80;99.90
1225;DHT22;602;48.000;7.840;2024-01-27T16:51:55;10.70;99.90
1225;DHT22;602;48.000;7.840;2024-01-27T16:54:24;10.70;99.90
1225;DHT22;602;48.000;7.840;2024-01-27T16:56:51;10.70;99.90